createdAt,value
2022-07-30T00:00:37.042Z,3.50
2022-07-30T00:03:06.932Z,3.03
2022-07-30T00:05:35.597Z,3.40
2022-07-30T00:08:04.119Z,3.33
2022-07-30T00:10:32.695Z,3.20
2022-07-30T00:13:03.490Z,3.67
2022-07-30T00:15:32.090Z,3.40
2022-07-30T00:18:02.614Z,3.20
2022-07-30T00:20:32.573Z,3.60
2022-07-30T00:23:01.137Z,3.83
2022-07-30T00:25:29.638Z,3.10
2022-07-30T00:27:58.143Z,3.47
2022-07-30T00:30:29.433Z,3.40
2022-07-30T00:32:58.462Z,4.23
2022-07-30T00:35:27.663Z,3.23
2022-07-30T00:38:00.098Z,3.30
2022-07-30T00:40:28.687Z,3.23
2022-07-30T00:42:57.395Z,3.07
2022-07-30T00:45:32.107Z,4.10
2022-07-30T00:48:01.622Z,3.70
2022-07-30T00:50:30.202Z,3.70
2022-07-30T00:53:01.306Z,3.80
2022-07-30T00:55:29.916Z,3.60
2022-07-30T00:57:58.499Z,4.03
2022-07-30T01:00:33.152Z,3.90
2022-07-30T01:03:01.637Z,5.07
2022-07-30T01:05:31.503Z,4.17
2022-07-30T01:08:01.506Z,3.80
2022-07-30T01:10:30.007Z,3.57
2022-07-30T01:12:59.259Z,3.80
2022-07-30T01:15:27.724Z,4.07
2022-07-30T01:17:57.130Z,4.00
2022-07-30T01:20:30.010Z,4.10
2022-07-30T01:23:06.928Z,3.93
2022-07-30T01:25:59.288Z,3.53
2022-07-30T01:28:30.856Z,3.93
2022-07-30T01:31:02.517Z,4.33
2022-07-30T01:33:31.152Z,3.63
2022-07-30T01:35:59.650Z,3.77
2022-07-30T01:38:34.891Z,4.00
2022-07-30T01:41:03.904Z,4.07
2022-07-30T01:43:34.124Z,4.00
2022-07-30T01:46:02.689Z,4.27
2022-07-30T01:48:31.355Z,3.50
2022-07-30T01:51:02.217Z,4.07
2022-07-30T01:53:31.832Z,4.10
2022-07-30T01:56:00.754Z,3.70
2022-07-30T01:58:30.092Z,3.97
2022-07-30T02:01:03.160Z,3.60
2022-07-30T02:03:31.739Z,4.13
2022-07-30T02:06:00.718Z,3.90
2022-07-30T02:08:30.385Z,3.73
2022-07-30T02:11:03.495Z,3.87
2022-07-30T02:13:33.650Z,3.60
2022-07-30T02:16:05.732Z,3.87
2022-07-30T02:18:39.755Z,3.40
2022-07-30T02:21:11.590Z,4.20
2022-07-30T02:23:44.425Z,3.70
2022-07-30T02:26:16.167Z,4.43
2022-07-30T02:28:44.712Z,4.07
2022-07-30T02:31:17.627Z,4.73
2022-07-30T02:33:48.693Z,4.60
2022-07-30T02:36:19.936Z,4.43
2022-07-30T02:38:50.939Z,3.83
2022-07-30T02:41:24.834Z,4.43
2022-07-30T02:43:55.373Z,3.97
2022-07-30T02:46:31.417Z,4.23
2022-07-30T02:49:00.491Z,4.20
2022-07-30T02:51:29.087Z,3.80
2022-07-30T02:53:57.694Z,4.20
2022-07-30T02:56:26.417Z,4.23
2022-07-30T02:58:58.548Z,3.77
2022-07-30T03:01:28.556Z,3.77
2022-07-30T03:04:00.173Z,3.80
2022-07-30T03:06:29.085Z,4.53
2022-07-30T03:08:59.539Z,3.80
2022-07-30T03:11:28.159Z,3.80
2022-07-30T03:13:56.749Z,4.23
2022-07-30T03:16:28.602Z,3.90
2022-07-30T03:19:02.489Z,4.53
2022-07-30T03:21:33.721Z,4.17
2022-07-30T03:24:05.598Z,4.17
2022-07-30T03:26:35.353Z,4.77
2022-07-30T03:29:05.092Z,4.20
2022-07-30T03:31:47.676Z,4.07
2022-07-30T03:34:18.332Z,4.13
2022-07-30T03:36:47.306Z,3.97
2022-07-30T03:39:15.923Z,4.20
2022-07-30T03:41:44.445Z,4.10
2022-07-30T03:44:13.160Z,4.27
2022-07-30T03:46:43.707Z,4.10
2022-07-30T03:49:12.589Z,4.27
2022-07-30T03:51:42.492Z,4.40
2022-07-30T03:54:15.115Z,3.50
2022-07-30T03:56:43.765Z,4.07
2022-07-30T03:59:13.990Z,4.07
2022-07-30T04:01:45.625Z,3.83
2022-07-30T04:04:17.317Z,3.90
2022-07-30T04:06:48.380Z,3.70
2022-07-30T04:09:17.083Z,3.97
2022-07-30T04:11:47.369Z,4.30
2022-07-30T04:14:16.123Z,4.10
2022-07-30T04:16:48.784Z,3.73
2022-07-30T04:19:18.278Z,3.80
2022-07-30T04:21:48.472Z,3.53
2022-07-30T04:24:18.901Z,3.73
2022-07-30T04:26:47.491Z,3.30
2022-07-30T04:29:18.226Z,3.47
2022-07-30T04:31:49.096Z,3.50
2022-07-30T04:34:17.636Z,3.23
2022-07-30T04:36:46.192Z,3.37
2022-07-30T04:39:18.695Z,3.30
2022-07-30T04:41:49.390Z,3.30
2022-07-30T04:44:19.006Z,3.70
2022-07-30T04:46:49.481Z,3.13
2022-07-30T04:49:18.297Z,2.80
2022-07-30T04:51:48.883Z,3.10
2022-07-30T04:54:25.026Z,2.90
2022-07-30T04:56:58.613Z,2.83
2022-07-30T04:59:28.985Z,3.33
2022-07-30T05:01:58.221Z,3.13
2022-07-30T05:04:26.818Z,2.83
2022-07-30T05:06:55.486Z,2.80
2022-07-30T05:09:27.003Z,2.83
2022-07-30T05:11:59.467Z,3.03
2022-07-30T05:14:32.375Z,3.00
2022-07-30T05:17:01.286Z,2.87
2022-07-30T05:19:46.531Z,3.00
2022-07-30T05:22:16.961Z,2.40
2022-07-30T05:24:46.883Z,2.50
2022-07-30T05:27:15.434Z,2.37
2022-07-30T05:29:43.944Z,2.70
2022-07-30T05:32:13.810Z,2.37
2022-07-30T05:34:43.307Z,2.40
2022-07-30T05:37:18.542Z,2.37
2022-07-30T05:40:02.844Z,2.73
2022-07-30T05:42:32.031Z,2.13
2022-07-30T05:45:05.648Z,2.50
2022-07-30T05:47:34.753Z,2.40
2022-07-30T05:50:05.164Z,1.97
2022-07-30T05:52:34.075Z,2.33
2022-07-30T05:55:04.052Z,2.03
2022-07-30T05:57:35.813Z,2.07
2022-07-30T06:00:12.475Z,2.00
2022-07-30T06:02:41.914Z,2.37
2022-07-30T06:05:10.766Z,2.70
2022-07-30T06:07:39.397Z,2.30
2022-07-30T06:10:12.644Z,2.07
2022-07-30T06:12:42.405Z,2.10
2022-07-30T06:15:11.906Z,1.97
2022-07-30T06:17:48.439Z,1.93
2022-07-30T06:20:28.214Z,2.37
2022-07-30T06:22:56.831Z,2.03
2022-07-30T06:25:27.483Z,1.80
2022-07-30T06:28:06.949Z,1.83
2022-07-30T06:30:51.002Z,2.03
2022-07-30T06:33:21.247Z,1.93
2022-07-30T06:35:51.767Z,2.00
2022-07-30T06:38:33.038Z,2.20
2022-07-30T06:41:04.436Z,2.07
2022-07-30T06:43:36.582Z,2.00
2022-07-30T06:46:08.088Z,1.60
2022-07-30T06:48:39.895Z,2.07
2022-07-30T06:51:12.531Z,1.87
2022-07-30T06:53:45.933Z,1.57
2022-07-30T06:56:15.982Z,2.10
2022-07-30T06:58:44.539Z,1.70
2022-07-30T07:01:13.228Z,1.90
2022-07-30T07:03:41.909Z,1.67
2022-07-30T07:06:10.512Z,1.73
2022-07-30T07:08:39.414Z,1.70
2022-07-30T07:11:07.898Z,1.60
2022-07-30T07:13:43.347Z,1.60
2022-07-30T07:16:12.105Z,1.57
2022-07-30T07:18:43.264Z,1.60
2022-07-30T07:21:13.853Z,1.57
2022-07-30T07:23:42.568Z,2.03
2022-07-30T07:26:15.851Z,1.80
2022-07-30T07:28:45.871Z,1.70
2022-07-30T07:32:05.289Z,1.67
2022-07-30T07:34:03.022Z,1.80
2022-07-30T07:36:31.801Z,1.67
2022-07-30T07:39:05.308Z,1.37
2022-07-30T07:41:48.484Z,1.67
2022-07-30T07:44:35.433Z,1.53
2022-07-30T07:47:05.610Z,1.70
2022-07-30T07:49:34.240Z,1.80
2022-07-30T07:52:11.838Z,1.60
2022-07-30T07:54:42.987Z,1.50
2022-07-30T07:57:15.329Z,1.80
2022-07-30T07:59:46.921Z,1.53
2022-07-30T08:02:21.027Z,1.80
2022-07-30T08:04:49.749Z,1.50
2022-07-30T08:07:18.327Z,1.53
2022-07-30T08:09:49.161Z,1.57
2022-07-30T08:12:17.934Z,1.60
2022-07-30T08:14:48.387Z,1.57
2022-07-30T08:17:18.419Z,1.77
2022-07-30T08:19:46.999Z,1.60
2022-07-30T08:22:18.501Z,1.83
2022-07-30T08:24:47.033Z,1.77
2022-07-30T08:27:15.503Z,1.50
2022-07-30T08:29:51.645Z,1.33
2022-07-30T08:32:21.579Z,1.60
2022-07-30T08:34:50.145Z,1.43
2022-07-30T08:37:28.046Z,1.60
2022-07-30T08:39:56.422Z,1.40
2022-07-30T08:42:29.025Z,1.17
2022-07-30T08:45:00.461Z,1.73
2022-07-30T08:47:34.342Z,1.23
2022-07-30T08:50:09.282Z,1.60
2022-07-30T08:52:40.766Z,1.20
2022-07-30T08:55:09.829Z,1.30
2022-07-30T08:57:41.815Z,1.43
2022-07-30T09:00:18.028Z,1.70
2022-07-30T09:02:48.088Z,1.50
2022-07-30T09:05:19.356Z,1.60
2022-07-30T09:07:47.832Z,1.50
2022-07-30T09:10:19.214Z,1.50
2022-07-30T09:12:50.302Z,1.23
2022-07-30T09:15:19.525Z,1.30
2022-07-30T09:17:51.867Z,1.93
2022-07-30T09:20:21.703Z,1.40
2022-07-30T09:23:03.184Z,1.30
2022-07-30T09:25:42.529Z,1.80
2022-07-30T09:28:17.886Z,1.40
2022-07-30T09:30:47.048Z,1.87
2022-07-30T09:33:21.765Z,1.40
2022-07-30T09:35:56.908Z,1.70
2022-07-30T09:38:28.491Z,1.27
2022-07-30T09:41:12.242Z,1.53
2022-07-30T09:43:47.786Z,1.33
2022-07-30T09:46:16.654Z,1.37
2022-07-30T09:48:47.092Z,1.43
2022-07-30T09:51:22.518Z,1.50
2022-07-30T09:54:06.750Z,1.63
2022-07-30T09:56:53.636Z,1.40
2022-07-30T09:59:34.981Z,1.27
2022-07-30T10:02:10.164Z,1.33
2022-07-30T10:04:40.627Z,1.40
2022-07-30T10:07:09.252Z,1.47
2022-07-30T10:09:45.326Z,1.53
2022-07-30T10:12:16.126Z,1.50
2022-07-30T10:14:46.529Z,1.40
2022-07-30T10:17:47.693Z,1.30
2022-07-30T10:20:09.620Z,1.20
2022-07-30T10:22:42.833Z,1.40
2022-07-30T10:25:16.337Z,1.30
2022-07-30T10:27:45.011Z,1.27
2022-07-30T10:30:14.105Z,1.40
2022-07-30T10:32:44.975Z,1.20
2022-07-30T10:35:34.980Z,1.97
2022-07-30T10:40:52.896Z,1.20
2022-07-30T10:43:43.684Z,1.27
2022-07-30T10:46:31.343Z,1.20
2022-07-30T10:49:11.707Z,1.30
2022-07-30T10:51:48.014Z,1.53
2022-07-30T10:54:41.708Z,1.70
2022-07-30T10:57:14.970Z,1.70
2022-07-30T11:00:12.147Z,2.23
2022-07-30T11:03:14.237Z,1.60
2022-07-30T11:05:48.172Z,1.67
2022-07-30T11:08:36.220Z,1.63
2022-07-30T11:11:19.135Z,1.40
2022-07-30T11:14:00.188Z,1.77
2022-07-30T11:16:57.027Z,1.90
2022-07-30T11:19:56.315Z,1.70
2022-07-30T11:22:25.945Z,1.40
2022-07-30T11:24:58.439Z,1.40
2022-07-30T11:27:37.162Z,1.67
2022-07-30T11:30:10.707Z,1.90
2022-07-30T11:32:40.660Z,1.80
2022-07-30T11:35:25.368Z,1.50
2022-07-30T11:38:12.362Z,1.80
2022-07-30T11:40:58.935Z,1.77
2022-07-30T11:43:36.057Z,1.70
2022-07-30T11:46:10.871Z,1.80
2022-07-30T11:48:44.845Z,1.57
2022-07-30T11:51:13.546Z,1.53
2022-07-30T11:53:42.278Z,1.80
2022-07-30T11:56:16.558Z,1.80
2022-07-30T11:58:46.676Z,1.87
2022-07-30T12:01:15.489Z,2.07
2022-07-30T12:03:44.356Z,1.50
2022-07-30T12:06:19.972Z,1.80
2022-07-30T12:08:58.585Z,1.73
2022-07-30T12:11:29.194Z,1.80
2022-07-30T12:14:03.461Z,1.67
2022-07-30T12:16:32.594Z,1.60
2022-07-30T12:19:03.229Z,1.30
2022-07-30T12:21:31.826Z,1.80
2022-07-30T12:24:03.568Z,1.50
2022-07-30T12:26:36.089Z,1.50
2022-07-30T12:29:05.536Z,1.30
2022-07-30T12:31:38.411Z,1.40
2022-07-30T12:34:20.529Z,1.50
2022-07-30T12:36:49.100Z,1.50
2022-07-30T12:39:20.927Z,1.47
2022-07-30T12:41:51.062Z,1.70
2022-07-30T12:44:38.647Z,1.73
2022-07-30T12:47:07.738Z,1.70
2022-07-30T12:49:48.637Z,1.70
2022-07-30T12:52:29.355Z,1.50
2022-07-30T12:55:03.168Z,1.42
2022-07-30T12:57:46.800Z,1.73
2022-07-30T13:03:45.070Z,1.70
2022-07-30T13:06:14.409Z,1.60
2022-07-30T13:09:00.676Z,1.50
2022-07-30T13:11:48.455Z,1.50
2022-07-30T13:14:19.713Z,1.60
2022-07-30T13:16:58.371Z,1.60
2022-07-30T13:19:27.149Z,2.20
2022-07-30T13:22:01.776Z,1.30
2022-07-30T13:24:30.279Z,1.50
2022-07-30T13:26:58.740Z,1.80
2022-07-30T13:29:28.796Z,2.33
2022-07-30T13:31:58.810Z,1.57
2022-07-30T13:34:27.630Z,1.70
2022-07-30T13:36:56.192Z,1.60
2022-07-30T13:39:28.358Z,1.70
2022-07-30T13:41:58.043Z,2.10
2022-07-30T13:44:29.276Z,1.67
2022-07-30T13:47:01.905Z,1.90
2022-07-30T13:49:32.597Z,1.83
2022-07-30T13:52:04.138Z,1.77
2022-07-30T13:54:32.636Z,1.70
2022-07-30T13:57:01.427Z,1.70
2022-07-30T13:59:31.736Z,2.07
2022-07-30T14:02:06.238Z,1.70
2022-07-30T14:04:34.784Z,1.47
2022-07-30T14:07:06.113Z,1.43
2022-07-30T14:09:45.784Z,1.77
2022-07-30T14:12:16.392Z,1.80
2022-07-30T14:14:44.975Z,1.60
2022-07-30T14:17:15.112Z,1.97
2022-07-30T14:19:43.791Z,1.80
2022-07-30T14:22:12.699Z,1.87
2022-07-30T14:24:45.754Z,2.00
2022-07-30T14:27:14.425Z,1.60
2022-07-30T14:29:50.714Z,1.73
2022-07-30T14:35:05.182Z,1.60
2022-07-30T14:37:48.743Z,1.83
2022-07-30T14:40:17.226Z,1.70
2022-07-30T14:42:47.542Z,1.87
2022-07-30T14:45:23.817Z,2.13
2022-07-30T14:47:57.995Z,2.00
2022-07-30T14:50:28.626Z,1.93
2022-07-30T14:52:57.207Z,1.90
2022-07-30T14:55:28.782Z,1.97
2022-07-30T14:57:57.392Z,2.00
2022-07-30T15:00:31.953Z,2.43
2022-07-30T15:03:05.698Z,1.97
2022-07-30T15:05:34.152Z,2.10
2022-07-30T15:08:02.649Z,2.00
2022-07-30T15:10:31.170Z,2.40
2022-07-30T15:13:01.894Z,2.10
2022-07-30T15:15:46.066Z,1.97
2022-07-30T15:18:19.111Z,2.20
2022-07-30T15:20:50.161Z,2.10
2022-07-30T15:23:18.923Z,2.13
2022-07-30T15:25:49.253Z,2.00
2022-07-30T15:28:17.879Z,2.37
2022-07-30T15:30:46.521Z,2.30
2022-07-30T15:33:16.734Z,2.60
2022-07-30T15:35:46.727Z,2.40
2022-07-30T15:38:16.967Z,2.40
2022-07-30T15:40:45.869Z,2.43
2022-07-30T15:43:14.375Z,2.60
2022-07-30T15:45:56.005Z,4.27
2022-07-30T15:48:27.112Z,6.33
2022-07-30T15:50:57.709Z,3.63
2022-07-30T15:53:26.293Z,3.10
2022-07-30T15:55:57.801Z,2.57
2022-07-30T15:58:26.364Z,2.50
2022-07-30T16:00:55.239Z,2.23
2022-07-30T16:03:26.191Z,2.73
2022-07-30T16:05:57.924Z,2.80
2022-07-30T16:08:30.639Z,3.07
2022-07-30T16:10:59.308Z,11.37
2022-07-30T16:13:30.128Z,3.47
2022-07-30T16:15:58.640Z,3.50
2022-07-30T16:18:28.546Z,2.97
2022-07-30T16:20:58.944Z,2.80
2022-07-30T16:23:36.209Z,3.47
2022-07-30T16:26:05.467Z,3.23
2022-07-30T16:28:41.524Z,3.03
2022-07-30T16:31:09.997Z,3.03
2022-07-30T16:33:40.510Z,2.57
2022-07-30T16:36:09.596Z,2.80
2022-07-30T16:38:39.617Z,2.83
2022-07-30T16:41:14.138Z,2.73
2022-07-30T16:43:42.835Z,3.40
2022-07-30T16:46:13.602Z,2.67
2022-07-30T16:48:42.248Z,3.40
2022-07-30T16:51:16.161Z,2.70
2022-07-30T16:53:51.434Z,3.33
2022-07-30T16:56:20.006Z,2.60
2022-07-30T16:58:48.568Z,2.47
2022-07-30T17:01:18.570Z,2.70
2022-07-30T17:03:48.449Z,3.10
2022-07-30T17:06:17.187Z,2.70
2022-07-30T17:08:47.200Z,2.90
2022-07-30T17:11:46.130Z,3.03
2022-07-30T17:14:06.112Z,2.37
2022-07-30T17:16:43.364Z,2.90
2022-07-30T17:19:12.063Z,2.90
2022-07-30T17:21:40.737Z,2.80
2022-07-30T17:24:14.810Z,3.40
2022-07-30T17:26:44.159Z,3.10
2022-07-30T17:29:20.573Z,2.90
2022-07-30T17:31:49.324Z,3.00
2022-07-30T17:34:20.317Z,2.80
2022-07-30T17:36:52.905Z,4.33
2022-07-30T17:40:29.867Z,3.20
2022-07-30T17:42:15.025Z,2.47
2022-07-30T17:44:44.183Z,3.10
2022-07-30T17:47:16.454Z,2.80
2022-07-30T17:49:45.249Z,3.13
2022-07-30T17:52:13.926Z,3.70
2022-07-30T17:54:47.020Z,3.53
2022-07-30T17:57:26.806Z,3.00
2022-07-30T17:59:57.405Z,2.63
2022-07-30T18:02:31.648Z,2.80
2022-07-30T18:05:00.210Z,2.70
2022-07-30T18:07:35.433Z,2.80
2022-07-30T18:10:09.669Z,2.50
2022-07-30T18:12:38.641Z,2.60
2022-07-30T18:15:07.475Z,2.97
2022-07-30T18:17:37.553Z,2.97
2022-07-30T18:20:06.578Z,3.30
2022-07-30T18:22:35.340Z,3.00
2022-07-30T18:25:07.567Z,3.40
2022-07-30T18:27:36.500Z,3.07
2022-07-30T18:30:05.122Z,2.83
2022-07-30T18:32:33.700Z,3.10
2022-07-30T18:35:03.176Z,2.70
2022-07-30T18:37:39.258Z,3.20
2022-07-30T18:40:12.640Z,3.20
2022-07-30T18:42:41.139Z,3.10
2022-07-30T18:45:14.163Z,3.30
2022-07-30T18:47:44.658Z,3.60
2022-07-30T18:50:13.316Z,3.17
2022-07-30T18:52:42.113Z,3.70
2022-07-30T18:55:15.001Z,3.67
2022-07-30T18:57:52.318Z,3.30
2022-07-30T19:00:34.204Z,3.60
2022-07-30T19:03:04.354Z,3.07
2022-07-30T19:05:34.423Z,3.13
2022-07-30T19:08:03.243Z,3.60
2022-07-30T19:10:33.580Z,3.07
2022-07-30T19:13:08.607Z,3.50
2022-07-30T19:15:37.150Z,3.97
2022-07-30T19:18:16.135Z,3.30
2022-07-30T19:20:54.822Z,3.43
2022-07-30T19:23:30.137Z,3.43
2022-07-30T19:26:02.207Z,3.20
2022-07-30T19:28:30.787Z,3.10
2022-07-30T19:30:59.846Z,2.80
2022-07-30T19:33:28.351Z,3.37
2022-07-30T19:36:09.857Z,3.23
2022-07-30T19:38:45.448Z,3.00
2022-07-30T19:41:15.845Z,2.90
2022-07-30T19:43:44.427Z,2.97
2022-07-30T19:46:26.743Z,3.13
2022-07-30T19:48:55.309Z,2.70
2022-07-30T19:52:07.341Z,3.10
2022-07-30T19:54:19.371Z,3.17
2022-07-30T19:56:50.973Z,3.23
2022-07-30T19:59:45.140Z,3.23
2022-07-30T20:02:27.165Z,4.10
2022-07-30T20:04:58.760Z,4.07
2022-07-30T20:07:44.611Z,4.10
2022-07-30T20:10:16.068Z,4.00
2022-07-30T20:12:50.603Z,3.67
2022-07-30T20:15:21.254Z,3.40
2022-07-30T20:17:50.207Z,3.53
2022-07-30T20:20:26.558Z,3.37
2022-07-30T20:23:14.600Z,3.23
2022-07-30T20:25:57.406Z,3.33
2022-07-30T20:28:32.265Z,2.87
2022-07-30T20:31:16.595Z,2.80
2022-07-30T20:33:59.764Z,2.60
2022-07-30T20:36:39.945Z,3.37
2022-07-30T20:41:44.418Z,2.87
2022-07-30T20:44:32.793Z,2.80
2022-07-30T20:47:08.556Z,2.57
2022-07-30T20:49:42.955Z,2.27
2022-07-30T20:52:25.490Z,1.80
2022-07-30T20:54:54.336Z,1.70
2022-07-30T20:57:44.543Z,2.30
2022-07-30T21:00:36.194Z,1.70
2022-07-30T21:03:13.766Z,2.53
2022-07-30T21:05:52.822Z,2.50
2022-07-30T21:08:21.440Z,2.20
2022-07-30T21:11:00.195Z,1.87
2022-07-30T21:13:32.413Z,2.00
2022-07-30T21:16:03.566Z,1.77
2022-07-30T21:18:33.966Z,1.80
2022-07-30T21:21:07.006Z,1.90
2022-07-30T21:23:42.898Z,1.60
2022-07-30T21:26:16.328Z,1.80
2022-07-30T21:28:51.926Z,1.73
2022-07-30T21:32:01.241Z,2.00
2022-07-30T21:34:26.442Z,2.00
2022-07-30T21:37:15.674Z,1.90
2022-07-30T21:39:46.961Z,1.70
2022-07-30T21:42:15.467Z,1.73
2022-07-30T21:44:46.730Z,1.80
2022-07-30T21:47:27.919Z,1.93
2022-07-30T21:50:03.140Z,1.60
2022-07-30T21:52:31.718Z,1.83
2022-07-30T21:57:50.084Z,2.00
2022-07-30T22:00:24.593Z,1.93
2022-07-30T22:02:54.116Z,1.83
2022-07-30T22:05:38.945Z,2.10
2022-07-30T22:08:10.735Z,2.00
2022-07-30T22:10:41.401Z,2.27
2022-07-30T22:13:11.155Z,1.80
2022-07-30T22:15:43.757Z,1.77
2022-07-30T22:18:12.330Z,1.80
2022-07-30T22:20:42.274Z,2.27
2022-07-30T22:23:10.769Z,2.27
2022-07-30T22:25:44.033Z,2.13
2022-07-30T22:28:16.706Z,2.43
2022-07-30T22:30:45.273Z,2.50
2022-07-30T22:33:16.132Z,2.50
2022-07-30T22:35:49.679Z,2.40
2022-07-30T22:38:19.572Z,2.63
2022-07-30T22:40:50.996Z,2.80
2022-07-30T22:43:19.923Z,2.40
2022-07-30T22:45:50.049Z,2.70
2022-07-30T22:48:19.501Z,2.93
2022-07-30T22:50:52.331Z,2.90
2022-07-30T22:54:02.719Z,2.70
2022-07-30T22:56:15.420Z,2.87
2022-07-30T22:58:44.480Z,3.23
2022-07-30T23:01:13.047Z,3.10
2022-07-30T23:03:42.176Z,3.00
2022-07-30T23:06:14.824Z,3.43
2022-07-30T23:08:46.490Z,2.93
2022-07-30T23:12:31.990Z,1.80
2022-07-30T23:14:01.269Z,3.93
2022-07-30T23:16:34.242Z,3.63
2022-07-30T23:19:02.894Z,4.50
2022-07-30T23:21:36.050Z,3.23
2022-07-30T23:24:06.552Z,3.80
2022-07-30T23:26:38.325Z,3.60
2022-07-30T23:29:06.757Z,4.07
2022-07-30T23:31:50.219Z,4.00
2022-07-30T23:34:20.823Z,3.60
2022-07-30T23:36:50.957Z,3.70
2022-07-30T23:39:19.689Z,3.57
2022-07-30T23:41:48.765Z,3.47
2022-07-30T23:44:17.239Z,3.20
2022-07-30T23:46:45.806Z,3.30
2022-07-30T23:49:14.281Z,3.90
2022-07-30T23:51:45.526Z,3.50
2022-07-30T23:54:15.436Z,3.67
2022-07-30T23:56:51.965Z,3.30
2022-07-30T23:59:20.498Z,3.43
